Terminal Aerodrome Forecast
Issued by NWS

Current Version | Previous Version | Text Only | Print | Product List | Glossary On
Versions: 1 2 3 4 5 6 7 8 9 10 11 12 13 14 15 16 17 18
000
FTUS44 KOUN 210535
TAFHBR
TAF
KHBR 210535Z 2106/2206 03018KT P6SM SCT080 BKN150
     FM211600 01016G24KT P6SM OVC050
     FM211800 02015KT 2SM -FZRAPL BR OVC010
     FM220200 03010KT 4SM BR OVC007
      TEMPO 2202/2205 2SM -FZRA=

USA.gov is the U.S. government's official web portal to all federal, state and local government web resources and services.